EmailTwitter


Surface observations / United Kingdom / EGLL (03772)

Regions: Quebec | Canada | USA | Europe | France | UK | Elsewhere
Station
Display
Info & Location for EGLL (03772) | Help decoding METAR

Weather Conditions observed on 2020/02/17 at 16:50 UTC at LONDON/HEATHROW, UK (EGLL)

Temperature: 9.0 Celsius.

Dewpoint: 3.0 Celsius.

Relative Humidity: 66%

Windchill Factor: 5.

Windchill Factor (Gusts): 4.

Winds: West at 31 km/h or 17 knots.

Gust: 50 km/h or 27 knots.

Mean Sea level Pressure: 101.20 kilopascals.

Horizontal visibility: 6.21 statute miles or 9.94 kilometers.

Coded METAR:

EGLL 171650Z AUTO 26017G27KT 9999 NCD 09/03 Q1012=